createdAt,value
2017-04-03T00:00:45.999Z,67.00
2017-04-03T00:01:46.007Z,69.40
2017-04-03T00:02:48.597Z,68.30
2017-04-03T00:03:53.542Z,67.00
2017-04-03T00:04:55.551Z,68.40
2017-04-03T00:05:58.043Z,68.40
2017-04-03T00:07:03.083Z,68.60
2017-04-03T00:08:07.618Z,68.60
2017-04-03T00:09:09.634Z,67.80
2017-04-03T00:10:12.362Z,67.50
2017-04-03T00:11:17.355Z,69.20
2017-04-03T00:12:19.487Z,68.50
2017-04-03T00:13:24.542Z,70.40
2017-04-03T00:14:29.147Z,68.70
2017-04-03T00:15:33.744Z,68.20
2017-04-03T00:16:38.311Z,69.80
2017-04-03T00:17:43.073Z,69.70
2017-04-03T00:18:47.375Z,68.40
2017-04-03T00:19:50.515Z,67.70
2017-04-03T00:20:55.547Z,69.10
2017-04-03T00:21:57.640Z,67.90
2017-04-03T00:23:02.774Z,68.00
2017-04-03T00:24:07.287Z,70.20
2017-04-03T00:25:12.006Z,68.60
2017-04-03T00:26:15.106Z,68.30
2017-04-03T00:27:17.632Z,68.00
2017-04-03T00:28:22.623Z,69.20
2017-04-03T00:29:27.235Z,68.00
2017-04-03T00:30:31.799Z,67.70
2017-04-03T00:31:34.008Z,68.50
2017-04-03T00:32:39.029Z,69.00
2017-04-03T00:33:43.643Z,69.30
2017-04-03T00:34:48.225Z,70.30
2017-04-03T00:35:52.723Z,68.50
2017-04-03T00:36:57.205Z,69.50
2017-04-03T00:38:01.903Z,69.90
2017-04-03T00:39:04.994Z,69.50
2017-04-03T00:40:10.139Z,69.20
2017-04-03T00:41:14.732Z,69.60
2017-04-03T00:42:19.295Z,70.20
2017-04-03T00:43:23.899Z,70.00
2017-04-03T00:44:28.283Z,69.90
2017-04-03T00:45:32.770Z,70.30
2017-04-03T00:46:37.191Z,69.40
2017-04-03T00:47:41.699Z,69.00
2017-04-03T00:48:46.101Z,68.10
2017-04-03T00:49:50.571Z,67.80
2017-04-03T00:50:55.175Z,67.10
2017-04-03T00:51:59.646Z,66.90
2017-04-03T00:53:01.817Z,66.20
2017-04-03T00:54:06.507Z,65.60
2017-04-03T00:55:13.107Z,66.50
2017-04-03T00:56:15.012Z,65.80
2017-04-03T00:57:17.507Z,66.30
2017-04-03T00:58:22.451Z,66.00
2017-04-03T00:59:27.012Z,67.80
2017-04-03T01:00:31.534Z,65.30
2017-04-03T01:01:36.167Z,65.30
2017-04-03T01:02:39.273Z,66.50
2017-04-03T01:03:41.907Z,64.40
2017-04-03T01:04:46.955Z,64.80
2017-04-03T01:05:49.228Z,63.70
2017-04-03T01:06:51.800Z,62.70
2017-04-03T01:07:56.806Z,63.40
2017-04-03T01:08:58.883Z,63.20
2017-04-03T01:10:03.959Z,63.30
2017-04-03T01:11:05.947Z,62.90
2017-04-03T01:12:10.908Z,62.60
2017-04-03T01:13:15.251Z,62.70
2017-04-03T01:14:19.722Z,62.60
2017-04-03T01:15:18.522Z,62.30
2017-04-03T01:16:22.855Z,62.90
2017-04-03T01:17:27.284Z,62.50
2017-04-03T01:18:29.332Z,62.30
2017-04-03T01:19:34.264Z,62.00
2017-04-03T01:20:36.375Z,62.20
2017-04-03T01:21:41.371Z,62.30
2017-04-03T01:22:45.979Z,63.40
2017-04-03T01:23:50.400Z,63.00
2017-04-03T01:24:52.519Z,63.60
2017-04-03T01:25:57.595Z,64.50
2017-04-03T01:27:02.147Z,64.30
2017-04-03T01:28:06.772Z,64.30
2017-04-03T01:29:11.245Z,64.60
2017-04-03T01:30:15.739Z,65.30
2017-04-03T01:31:17.847Z,64.50
2017-04-03T01:32:16.624Z,65.60
2017-04-03T01:33:20.019Z,65.30
2017-04-03T01:34:22.551Z,66.00
2017-04-03T01:35:27.499Z,65.20
2017-04-03T01:36:29.566Z,66.00
2017-04-03T01:37:32.119Z,65.70
2017-04-03T01:38:34.731Z,64.60
2017-04-03T01:39:39.819Z,64.50
2017-04-03T01:40:44.427Z,65.30
2017-04-03T01:41:49.059Z,66.60
2017-04-03T01:42:53.808Z,65.70
2017-04-03T01:43:55.927Z,65.40
2017-04-03T01:45:00.147Z,65.80
2017-04-03T01:46:04.780Z,65.80
2017-04-03T01:47:07.066Z,64.90
2017-04-03T01:48:12.072Z,65.00
2017-04-03T01:49:16.702Z,64.60
2017-04-03T01:50:21.327Z,65.30
2017-04-03T01:51:26.097Z,64.50
2017-04-03T01:52:30.627Z,64.20
2017-04-03T01:53:35.110Z,64.50
2017-04-03T01:54:39.640Z,64.40
2017-04-03T01:55:44.151Z,64.80
2017-04-03T01:56:48.715Z,64.80
2017-04-03T01:57:50.787Z,64.90
2017-04-03T01:58:55.919Z,64.80
2017-04-03T02:00:00.378Z,65.10
2017-04-03T02:01:02.546Z,64.80
2017-04-03T02:02:07.607Z,64.80
2017-04-03T02:03:09.698Z,64.60
2017-04-03T02:04:12.198Z,64.10
2017-04-03T02:05:17.423Z,64.20
2017-04-03T02:06:21.840Z,63.60
2017-04-03T02:07:23.946Z,64.30
2017-04-03T02:08:28.867Z,64.50
2017-04-03T02:09:33.387Z,64.10
2017-04-03T02:10:37.899Z,64.00
2017-04-03T02:11:42.448Z,63.70
2017-04-03T02:12:47.015Z,63.80
2017-04-03T02:13:51.458Z,63.70
2017-04-03T02:14:55.820Z,64.00
2017-04-03T02:16:00.319Z,64.60
2017-04-03T02:17:04.831Z,63.70
2017-04-03T02:18:09.416Z,64.00
2017-04-03T02:19:13.935Z,64.00
2017-04-03T02:20:18.323Z,63.80
2017-04-03T02:21:22.839Z,64.20
2017-04-03T02:22:27.279Z,64.40
2017-04-03T02:23:31.678Z,64.40
2017-04-03T02:24:36.291Z,64.80
2017-04-03T02:25:40.845Z,64.80
2017-04-03T02:26:45.255Z,65.20
2017-04-03T02:27:49.675Z,65.40
2017-04-03T02:28:54.227Z,65.00
2017-04-03T02:29:56.367Z,66.10
2017-04-03T02:30:58.846Z,64.90
2017-04-03T02:32:01.499Z,66.10
2017-04-03T02:33:04.046Z,66.10
2017-04-03T02:34:09.235Z,66.50
2017-04-03T02:35:13.823Z,66.60
2017-04-03T02:36:18.388Z,66.50
2017-04-03T02:37:23.034Z,67.90
2017-04-03T02:38:27.683Z,68.40
2017-04-03T02:39:32.428Z,68.40
2017-04-03T02:40:34.606Z,67.80
2017-04-03T02:41:39.682Z,66.30
2017-04-03T02:42:41.695Z,66.60
2017-04-03T02:43:46.839Z,66.40
2017-04-03T02:44:51.579Z,64.70
2017-04-03T02:45:56.055Z,65.40
2017-04-03T02:47:00.516Z,63.90
2017-04-03T02:48:05.101Z,65.00
2017-04-03T02:49:07.211Z,64.10
2017-04-03T02:50:09.827Z,66.20
2017-04-03T02:51:14.953Z,64.60
2017-04-03T02:52:19.449Z,64.80
2017-04-03T02:53:22.835Z,63.90
2017-04-03T02:54:27.920Z,62.90
2017-04-03T02:55:30.170Z,62.80
2017-04-03T02:56:35.278Z,65.10
2017-04-03T02:57:39.899Z,63.50
2017-04-03T02:58:44.627Z,63.80
2017-04-03T02:59:49.186Z,63.50
2017-04-03T03:00:53.719Z,64.90
2017-04-03T03:01:58.211Z,64.30
2017-04-03T03:03:02.799Z,62.70
2017-04-03T03:04:07.379Z,62.70
2017-04-03T03:05:12.067Z,62.10
2017-04-03T03:06:14.211Z,63.90
2017-04-03T03:07:16.011Z,64.30
2017-04-03T03:08:18.751Z,64.20
2017-04-03T03:09:23.595Z,63.50
2017-04-03T03:10:28.019Z,62.60
2017-04-03T03:11:32.440Z,62.30
2017-04-03T03:12:34.490Z,61.70
2017-04-03T03:13:36.991Z,62.10
2017-04-03T03:14:41.883Z,62.30
2017-04-03T03:15:46.312Z,62.10
2017-04-03T03:16:50.799Z,62.10
2017-04-03T03:17:55.295Z,62.30
2017-04-03T03:18:57.406Z,62.80
2017-04-03T03:20:02.343Z,62.90
2017-04-03T03:21:04.431Z,63.40
2017-04-03T03:22:09.568Z,63.30
2017-04-03T03:23:14.074Z,63.10
2017-04-03T03:24:18.418Z,64.20
2017-04-03T03:25:20.562Z,63.20
2017-04-03T03:26:22.951Z,63.50
2017-04-03T03:27:28.099Z,63.60
2017-04-03T03:28:32.579Z,63.10
2017-04-03T03:29:37.119Z,63.00
2017-04-03T03:30:41.587Z,63.00
2017-04-03T03:31:46.099Z,62.80
2017-04-03T03:32:50.571Z,62.60
2017-04-03T03:33:50.567Z,63.20
2017-04-03T03:34:53.111Z,62.90
2017-04-03T03:35:58.042Z,63.30
2017-04-03T03:37:02.595Z,63.00
2017-04-03T03:38:07.147Z,62.90
2017-04-03T03:39:11.558Z,63.20
2017-04-03T03:40:13.744Z,63.80
2017-04-03T03:41:18.772Z,64.60
2017-04-03T03:42:23.367Z,63.80
2017-04-03T03:43:25.638Z,64.10
2017-04-03T03:44:30.459Z,64.00
2017-04-03T03:45:32.663Z,64.30
2017-04-03T03:46:35.242Z,64.20
2017-04-03T03:47:40.315Z,64.30
2017-04-03T03:48:44.963Z,64.40
2017-04-03T03:49:49.428Z,64.70
2017-04-03T03:50:54.211Z,65.00
2017-04-03T03:51:58.611Z,65.00
2017-04-03T03:53:03.251Z,64.90
2017-04-03T03:54:07.870Z,65.10
2017-04-03T03:55:09.988Z,65.90
2017-04-03T03:56:20.494Z,65.40
2017-04-03T03:57:31.199Z,65.40
2017-04-03T03:58:41.666Z,65.40
2017-04-03T03:59:46.435Z,65.10
2017-04-03T04:00:50.942Z,64.90
2017-04-03T04:01:55.487Z,64.90
2017-04-03T04:02:57.771Z,65.30
2017-04-03T04:04:02.832Z,65.40
2017-04-03T04:05:07.539Z,65.40
2017-04-03T04:06:12.227Z,65.00
2017-04-03T04:07:14.247Z,65.20
2017-04-03T04:08:18.479Z,65.20
2017-04-03T04:09:23.031Z,65.40
2017-04-03T04:10:25.173Z,66.30
2017-04-03T04:11:27.804Z,65.50
2017-04-03T04:12:32.967Z,67.40
2017-04-03T04:13:34.967Z,66.50
2017-04-03T04:14:39.198Z,66.20
2017-04-03T04:15:43.944Z,66.30
2017-04-03T04:16:51.963Z,67.70
2017-04-03T04:17:57.014Z,67.30
2017-04-03T04:19:01.650Z,66.70
2017-04-03T04:20:06.184Z,66.50
2017-04-03T04:21:10.799Z,68.10
2017-04-03T04:22:15.340Z,67.50
2017-04-03T04:23:19.962Z,68.80
2017-04-03T04:24:22.383Z,68.70
2017-04-03T04:25:27.192Z,68.40
2017-04-03T04:26:31.700Z,69.00
2017-04-03T04:27:36.103Z,68.00
2017-04-03T04:28:38.235Z,67.90
2017-04-03T04:29:43.215Z,68.80
2017-04-03T04:30:45.384Z,69.20
2017-04-03T04:31:50.255Z,69.60
2017-04-03T04:32:54.771Z,68.70
2017-04-03T04:33:56.726Z,67.60
2017-04-03T04:34:59.283Z,68.90
2017-04-03T04:36:04.387Z,69.00
2017-04-03T04:37:08.894Z,70.10
2017-04-03T04:38:10.837Z,68.50
2017-04-03T04:39:15.936Z,68.40
2017-04-03T04:40:20.629Z,67.50
2017-04-03T04:41:25.087Z,67.00
2017-04-03T04:42:29.955Z,68.50
2017-04-03T04:43:35.115Z,69.20
2017-04-03T04:44:37.296Z,68.80
2017-04-03T04:45:42.188Z,68.40
2017-04-03T04:46:44.380Z,69.00
2017-04-03T04:47:49.451Z,69.40
2017-04-03T04:48:51.528Z,69.00
2017-04-03T04:49:56.487Z,67.90
2017-04-03T04:51:00.911Z,69.50
2017-04-03T04:52:05.404Z,69.00
2017-04-03T04:53:07.439Z,68.20
2017-04-03T04:54:09.884Z,69.70
2017-04-03T04:55:14.895Z,70.10
2017-04-03T04:56:19.431Z,69.30
2017-04-03T04:57:21.675Z,69.30
2017-04-03T04:58:23.535Z,69.20
2017-04-03T04:59:26.097Z,69.80
2017-04-03T05:00:31.020Z,69.60
2017-04-03T05:01:35.628Z,69.20
2017-04-03T05:02:40.199Z,69.70
2017-04-03T05:03:44.958Z,69.80
2017-04-03T05:04:49.311Z,69.60
2017-04-03T05:05:53.823Z,69.60
2017-04-03T05:06:58.331Z,70.10
2017-04-03T05:08:02.710Z,71.00
2017-04-03T05:09:07.363Z,71.60
2017-04-03T05:10:11.747Z,71.60
2017-04-03T05:11:16.406Z,72.20
2017-04-03T05:12:19.403Z,71.10
2017-04-03T05:13:24.447Z,71.60
2017-04-03T05:14:29.083Z,72.60
2017-04-03T05:15:31.259Z,73.10
2017-04-03T05:16:36.399Z,72.40
2017-04-03T05:17:41.032Z,70.90
2017-04-03T05:18:45.723Z,71.70
2017-04-03T05:19:47.963Z,72.10
2017-04-03T05:20:52.911Z,72.20
2017-04-03T05:21:56.035Z,72.10
2017-04-03T05:23:01.034Z,72.60
2017-04-03T05:24:03.266Z,73.70
2017-04-03T05:25:08.454Z,74.60
2017-04-03T05:26:13.256Z,73.20
2017-04-03T05:27:17.851Z,73.70
2017-04-03T05:28:22.455Z,73.90
2017-04-03T05:29:26.879Z,73.00
2017-04-03T05:30:28.915Z,73.10
2017-04-03T05:31:34.060Z,73.40
2017-04-03T05:32:38.556Z,74.00
2017-04-03T05:33:43.167Z,73.00
2017-04-03T05:34:47.624Z,72.70
2017-04-03T05:35:52.235Z,73.20
2017-04-03T05:36:54.547Z,73.20
2017-04-03T05:37:54.083Z,74.00
2017-04-03T05:38:56.679Z,74.80
2017-04-03T05:40:01.651Z,75.00
2017-04-03T05:41:05.955Z,74.60
2017-04-03T05:42:07.991Z,75.70
2017-04-03T05:43:12.999Z,75.40
2017-04-03T05:44:15.959Z,75.90
2017-04-03T05:45:21.151Z,76.20
2017-04-03T05:46:28.627Z,76.20
2017-04-03T05:47:32.938Z,76.50
2017-04-03T05:48:37.478Z,76.20
2017-04-03T05:49:39.527Z,75.20
2017-04-03T05:50:42.144Z,76.00
2017-04-03T05:51:47.264Z,74.30
2017-04-03T05:52:51.851Z,75.00
2017-04-03T05:53:56.330Z,76.20
2017-04-03T05:54:58.387Z,76.80
2017-04-03T05:55:57.146Z,76.70
2017-04-03T05:56:59.676Z,76.70
2017-04-03T05:58:04.719Z,76.50
2017-04-03T05:59:06.801Z,76.70
2017-04-03T06:00:09.361Z,77.00
2017-04-03T06:01:11.867Z,77.00
2017-04-03T06:02:16.847Z,77.20
2017-04-03T06:03:21.207Z,77.00
2017-04-03T06:04:23.388Z,76.80
2017-04-03T06:05:25.868Z,76.90
2017-04-03T06:06:30.153Z,77.30
2017-04-03T06:07:34.725Z,77.40
2017-04-03T06:08:36.747Z,77.20
2017-04-03T06:09:41.832Z,76.70
2017-04-03T06:10:46.496Z,76.80
2017-04-03T06:11:51.127Z,76.50
2017-04-03T06:12:56.087Z,77.40
2017-04-03T06:14:00.879Z,76.70
2017-04-03T06:15:05.276Z,76.80
2017-04-03T06:16:09.895Z,76.90
2017-04-03T06:17:14.291Z,76.70
2017-04-03T06:18:18.891Z,77.40
2017-04-03T06:19:23.355Z,76.90
2017-04-03T06:20:27.979Z,77.20
2017-04-03T06:21:29.947Z,78.00
2017-04-03T06:22:32.676Z,78.50
2017-04-03T06:23:37.599Z,76.40
2017-04-03T06:24:39.535Z,77.00
2017-04-03T06:25:43.735Z,76.80
2017-04-03T06:26:45.898Z,76.00
2017-04-03T06:27:48.890Z,75.00
2017-04-03T06:28:53.736Z,73.40
2017-04-03T06:29:58.271Z,75.40
2017-04-03T06:31:02.895Z,74.60
2017-04-03T06:32:05.219Z,74.70
2017-04-03T06:33:10.299Z,74.30
2017-04-03T06:34:14.898Z,74.20
2017-04-03T06:35:19.679Z,74.50
2017-04-03T06:36:24.115Z,73.90
2017-04-03T06:37:28.791Z,73.90
2017-04-03T06:38:30.919Z,72.70
2017-04-03T06:39:33.591Z,72.60
2017-04-03T06:40:36.095Z,72.20
2017-04-03T06:41:41.264Z,73.00
2017-04-03T06:42:45.759Z,72.20
2017-04-03T06:43:50.295Z,70.80
2017-04-03T06:44:52.446Z,71.40
2017-04-03T06:45:57.392Z,71.00
2017-04-03T06:47:02.959Z,71.10
2017-04-03T06:48:07.344Z,70.70
2017-04-03T06:49:11.771Z,70.20
2017-04-03T06:50:13.839Z,70.40
2017-04-03T06:51:18.932Z,70.20
2017-04-03T06:52:23.290Z,71.00
2017-04-03T06:53:27.779Z,70.10
2017-04-03T06:54:32.223Z,69.10
2017-04-03T06:55:36.791Z,69.50
2017-04-03T06:56:38.780Z,69.20
2017-04-03T06:57:43.828Z,68.70
2017-04-03T06:58:48.305Z,69.20
2017-04-03T06:59:52.871Z,68.40
2017-04-03T07:00:54.943Z,67.80
2017-04-03T07:01:59.995Z,66.60
2017-04-03T07:03:04.459Z,68.60
2017-04-03T07:04:08.799Z,66.30
2017-04-03T07:05:13.275Z,65.50
2017-04-03T07:06:17.774Z,64.50
2017-04-03T07:07:22.251Z,63.70
2017-04-03T07:08:24.246Z,63.60
2017-04-03T07:09:29.136Z,63.20
2017-04-03T07:10:31.151Z,62.70
2017-04-03T07:11:33.671Z,62.00
2017-04-03T07:12:38.711Z,60.80
2017-04-03T07:13:43.476Z,60.40
2017-04-03T07:14:48.251Z,60.60
2017-04-03T07:15:53.383Z,59.80
2017-04-03T07:16:55.599Z,59.60
2017-04-03T07:17:57.471Z,59.40
2017-04-03T07:19:02.518Z,58.40
2017-04-03T07:20:07.106Z,58.40
2017-04-03T07:21:09.157Z,58.10
2017-04-03T07:22:11.668Z,58.30
2017-04-03T07:23:16.629Z,57.40
2017-04-03T07:24:19.817Z,57.70
2017-04-03T07:25:23.316Z,58.10
2017-04-03T07:26:28.507Z,57.70
2017-04-03T07:27:33.147Z,58.30
2017-04-03T07:28:37.543Z,58.50
2017-04-03T07:29:42.023Z,58.50
2017-04-03T07:30:40.788Z,59.40
2017-04-03T07:31:42.684Z,59.10
2017-04-03T07:32:47.679Z,57.30
2017-04-03T07:33:52.385Z,57.20
2017-04-03T07:34:54.369Z,57.20
2017-04-03T07:35:59.291Z,57.20
2017-04-03T07:37:03.891Z,56.90
2017-04-03T07:38:08.575Z,56.20
2017-04-03T07:39:13.175Z,56.80
2017-04-03T07:40:17.827Z,56.30
2017-04-03T07:41:22.187Z,56.60
2017-04-03T07:42:26.764Z,58.50
2017-04-03T07:43:31.475Z,57.10
2017-04-03T07:44:33.776Z,56.60
2017-04-03T07:45:38.919Z,56.90
2017-04-03T07:46:43.499Z,56.60
2017-04-03T07:47:48.020Z,56.70
2017-04-03T07:48:52.776Z,57.90
2017-04-03T07:49:54.939Z,57.20
2017-04-03T07:51:00.018Z,58.30
2017-04-03T07:52:04.759Z,57.80
2017-04-03T07:53:09.431Z,58.80
2017-04-03T07:54:13.974Z,57.60
2017-04-03T07:55:15.959Z,57.60
2017-04-03T07:56:20.962Z,56.90
2017-04-03T07:57:25.524Z,57.10
2017-04-03T07:58:27.635Z,56.80
2017-04-03T07:59:32.687Z,58.30
2017-04-03T08:00:37.159Z,57.80
2017-04-03T08:01:43.135Z,57.50
2017-04-03T08:02:45.879Z,56.40
2017-04-03T08:03:50.757Z,56.90
2017-04-03T08:04:55.171Z,57.60
2017-04-03T08:05:59.763Z,57.60
2017-04-03T08:07:04.227Z,58.20
2017-04-03T08:08:08.766Z,57.40
2017-04-03T08:09:13.231Z,56.80
2017-04-03T08:10:16.367Z,56.50
2017-04-03T08:11:20.644Z,57.00
2017-04-03T08:12:22.640Z,56.60
2017-04-03T08:13:27.587Z,57.90
2017-04-03T08:14:29.599Z,57.00
2017-04-03T08:15:34.659Z,56.60
2017-04-03T08:16:36.891Z,56.90
2017-04-03T08:17:41.663Z,57.20
2017-04-03T08:18:46.142Z,56.00
2017-04-03T08:19:49.087Z,55.30
2017-04-03T08:20:51.628Z,55.80
2017-04-03T08:21:56.644Z,56.60
2017-04-03T08:23:01.071Z,56.40
2017-04-03T08:24:03.107Z,57.50
2017-04-03T08:25:05.471Z,55.40
2017-04-03T08:26:08.199Z,55.90
2017-04-03T08:27:10.851Z,55.20
2017-04-03T08:28:13.243Z,54.30
2017-04-03T08:29:15.636Z,54.40
2017-04-03T08:30:20.595Z,55.40
2017-04-03T08:31:25.307Z,55.40
2017-04-03T08:32:30.007Z,55.70
2017-04-03T08:33:34.632Z,56.20
2017-04-03T08:34:39.227Z,56.00
2017-04-03T08:35:43.675Z,56.20
2017-04-03T08:36:48.234Z,56.10
2017-04-03T08:37:52.883Z,55.40
2017-04-03T08:38:54.887Z,55.70
2017-04-03T08:39:59.903Z,56.60
2017-04-03T08:41:04.559Z,54.40
2017-04-03T08:42:06.700Z,54.60
2017-04-03T08:43:11.771Z,54.80
2017-04-03T08:44:16.279Z,54.40
2017-04-03T08:45:20.735Z,53.60
2017-04-03T08:46:22.891Z,53.90
2017-04-03T08:47:25.391Z,54.50
2017-04-03T08:48:30.431Z,55.20
2017-04-03T08:49:35.143Z,55.00
2017-04-03T08:50:39.767Z,54.60
2017-04-03T08:51:44.455Z,54.80
2017-04-03T08:52:49.186Z,53.60
2017-04-03T08:53:53.739Z,53.80
2017-04-03T08:54:58.359Z,54.50
2017-04-03T08:56:03.046Z,54.50
2017-04-03T08:57:07.803Z,56.10
2017-04-03T08:58:12.422Z,54.80
2017-04-03T08:59:17.007Z,54.10
2017-04-03T09:00:21.911Z,53.80
2017-04-03T09:01:26.527Z,53.90
2017-04-03T09:02:30.983Z,53.10
2017-04-03T09:03:35.510Z,54.20
2017-04-03T09:04:40.125Z,54.10
2017-04-03T09:05:44.599Z,54.60
2017-04-03T09:06:48.891Z,53.30
2017-04-03T09:07:51.138Z,53.60
2017-04-03T09:08:53.591Z,53.60
2017-04-03T09:09:58.459Z,54.20
2017-04-03T09:11:03.024Z,53.00
2017-04-03T09:12:05.039Z,53.80
2017-04-03T09:13:10.082Z,52.90
2017-04-03T09:14:14.622Z,53.30
2017-04-03T09:15:19.171Z,53.20
2017-04-03T09:16:23.743Z,53.60
2017-04-03T09:17:28.233Z,52.40
2017-04-03T09:18:32.724Z,52.80
2017-04-03T09:19:34.843Z,52.90
2017-04-03T09:20:37.327Z,51.50
2017-04-03T09:21:39.944Z,50.60
2017-04-03T09:22:45.031Z,51.70
2017-04-03T09:23:49.447Z,52.00
2017-04-03T09:24:53.923Z,51.70
2017-04-03T09:25:58.419Z,52.00
2017-04-03T09:27:03.063Z,53.10
2017-04-03T09:28:07.339Z,51.60
2017-04-03T09:29:09.432Z,50.20
2017-04-03T09:30:14.543Z,50.00
2017-04-03T09:31:16.447Z,50.50
2017-04-03T09:32:21.466Z,51.40
2017-04-03T09:33:25.691Z,51.10
2017-04-03T09:34:30.132Z,51.20
2017-04-03T09:35:34.471Z,52.90
2017-04-03T09:36:36.455Z,52.10
2017-04-03T09:37:41.491Z,51.80
2017-04-03T09:38:45.943Z,51.50
2017-04-03T09:39:47.983Z,50.90
2017-04-03T09:40:50.576Z,51.00
2017-04-03T09:41:55.552Z,51.70
2017-04-03T09:42:57.707Z,52.50
2017-04-03T09:44:00.354Z,52.50
2017-04-03T09:45:05.379Z,53.50
2017-04-03T09:46:09.898Z,52.00
2017-04-03T09:47:12.035Z,52.60
2017-04-03T09:48:14.467Z,50.10
2017-04-03T09:49:19.675Z,50.20
2017-04-03T09:50:22.891Z,49.90
2017-04-03T09:51:25.395Z,49.80
2017-04-03T09:52:30.382Z,48.60
2017-04-03T09:53:32.510Z,48.60
2017-04-03T09:54:37.507Z,50.10
2017-04-03T09:55:41.979Z,50.50
2017-04-03T09:56:46.342Z,50.60
2017-04-03T09:57:48.428Z,49.80
2017-04-03T09:58:53.414Z,49.80
2017-04-03T09:59:57.899Z,49.50
2017-04-03T10:01:02.696Z,49.40
2017-04-03T10:02:07.323Z,49.40
2017-04-03T10:03:11.806Z,48.80
2017-04-03T10:04:16.483Z,50.20
2017-04-03T10:05:21.023Z,49.80
2017-04-03T10:06:25.691Z,49.30
2017-04-03T10:07:30.335Z,51.40
2017-04-03T10:08:34.719Z,51.50
2017-04-03T10:09:39.443Z,49.40
2017-04-03T10:10:41.558Z,50.20
2017-04-03T10:11:46.648Z,47.80
2017-04-03T10:12:48.827Z,49.90
2017-04-03T10:13:54.023Z,49.10
2017-04-03T10:14:56.083Z,48.70
2017-04-03T10:16:01.013Z,47.10
2017-04-03T10:17:05.595Z,47.40
2017-04-03T10:18:07.736Z,47.30
2017-04-03T10:19:10.476Z,47.30
2017-04-03T10:20:15.144Z,47.90
2017-04-03T10:21:20.103Z,48.30
2017-04-03T10:22:22.555Z,48.20
2017-04-03T10:23:27.417Z,47.90
2017-04-03T10:24:31.751Z,47.00
2017-04-03T10:25:36.130Z,47.50
2017-04-03T10:26:40.623Z,48.30
2017-04-03T10:27:42.663Z,48.20
2017-04-03T10:28:45.131Z,47.30
2017-04-03T10:29:47.747Z,48.20
2017-04-03T10:30:52.751Z,47.80
2017-04-03T10:31:57.283Z,49.30
2017-04-03T10:33:01.804Z,48.70
2017-04-03T10:34:03.851Z,47.80
2017-04-03T10:35:06.407Z,47.60
2017-04-03T10:36:08.983Z,47.20
2017-04-03T10:37:11.549Z,46.30
2017-04-03T10:38:14.106Z,46.00
2017-04-03T10:39:16.611Z,48.60
2017-04-03T10:40:21.643Z,47.50
2017-04-03T10:41:26.079Z,47.90
2017-04-03T10:42:28.223Z,49.00
2017-04-03T10:43:33.300Z,48.80
2017-04-03T10:44:37.878Z,49.60
2017-04-03T10:45:39.883Z,50.10
2017-04-03T10:46:42.467Z,49.40
2017-04-03T10:47:45.046Z,50.30
2017-04-03T10:48:47.647Z,50.00
2017-04-03T10:49:52.655Z,49.30
2017-04-03T10:50:57.175Z,48.90
2017-04-03T10:52:01.644Z,48.90
2017-04-03T10:53:06.160Z,48.00
2017-04-03T10:54:10.555Z,47.90
2017-04-03T10:55:15.100Z,47.50
2017-04-03T10:56:19.683Z,48.30
2017-04-03T10:57:24.215Z,49.10
2017-04-03T10:58:28.711Z,50.10
2017-04-03T10:59:33.371Z,50.00
2017-04-03T11:00:38.099Z,49.20
2017-04-03T11:01:42.611Z,47.70
2017-04-03T11:02:47.355Z,48.20
2017-04-03T11:03:51.878Z,48.50
2017-04-03T11:04:56.119Z,48.70
2017-04-03T11:06:00.651Z,48.20
2017-04-03T11:07:02.575Z,47.90
2017-04-03T11:08:07.503Z,47.70
2017-04-03T11:09:11.939Z,45.30
2017-04-03T11:10:14.082Z,46.60
2017-04-03T11:11:16.559Z,46.80
2017-04-03T11:12:19.300Z,48.40
2017-04-03T11:13:24.348Z,46.40
2017-04-03T11:14:26.810Z,46.10
2017-04-03T11:15:29.412Z,46.30
2017-04-03T11:16:34.547Z,44.50
2017-04-03T11:17:39.259Z,43.90
2017-04-03T11:18:43.798Z,43.20
2017-04-03T11:19:46.079Z,41.80
2017-04-03T11:20:51.223Z,42.90
2017-04-03T11:21:53.451Z,43.30
2017-04-03T11:22:58.446Z,45.30
2017-04-03T11:24:00.495Z,44.70
2017-04-03T11:25:05.463Z,44.40
2017-04-03T11:26:07.659Z,45.50
2017-04-03T11:27:10.686Z,45.70
2017-04-03T11:28:13.075Z,44.60
2017-04-03T11:29:15.659Z,44.10
2017-04-03T11:30:20.600Z,43.70
2017-04-03T11:31:25.119Z,45.50
2017-04-03T11:32:29.672Z,44.20
2017-04-03T11:33:31.784Z,45.20
2017-04-03T11:34:36.847Z,46.00
2017-04-03T11:35:45.532Z,46.10
2017-04-03T11:36:49.861Z,43.60
2017-04-03T11:37:54.410Z,43.50
2017-04-03T11:38:58.892Z,44.70
2017-04-03T11:40:03.295Z,46.10
2017-04-03T11:41:08.642Z,46.10
2017-04-03T11:42:13.663Z,45.30
2017-04-03T11:43:18.175Z,45.50
2017-04-03T11:44:22.696Z,46.30
2017-04-03T11:45:27.595Z,47.20
2017-04-03T11:47:36.195Z,45.50
2017-04-03T11:49:46.022Z,47.40
2017-04-03T11:50:56.282Z,48.20
2017-04-03T11:52:04.123Z,42.70
2017-04-03T11:53:14.168Z,40.80
2017-04-03T11:54:19.087Z,37.30
2017-04-03T11:55:23.643Z,38.50
2017-04-03T11:56:25.707Z,39.80
2017-04-03T11:57:30.709Z,38.70
2017-04-03T11:58:32.751Z,36.50
2017-04-03T11:59:37.868Z,36.60
2017-04-03T12:00:39.806Z,37.50
2017-04-03T12:01:42.215Z,37.00
2017-04-03T12:02:47.176Z,38.30
2017-04-03T12:03:49.386Z,38.00
2017-04-03T12:04:51.990Z,38.60
2017-04-03T12:05:57.003Z,39.60
2017-04-03T12:06:59.087Z,40.70
2017-04-03T12:08:04.060Z,40.90
2017-04-03T12:09:08.583Z,40.60
2017-04-03T12:10:13.284Z,42.50
2017-04-03T12:11:15.574Z,41.70
2017-04-03T12:12:20.739Z,41.10
2017-04-03T12:13:25.304Z,41.20
2017-04-03T12:14:28.283Z,42.50
2017-04-03T12:15:33.328Z,42.30
2017-04-03T12:16:35.464Z,40.20
2017-04-03T12:17:40.363Z,40.20
2017-04-03T12:18:45.003Z,40.70
2017-04-03T12:19:49.496Z,40.50
2017-04-03T12:20:51.459Z,41.50
2017-04-03T12:21:54.087Z,44.20
2017-04-03T12:22:58.923Z,43.10
2017-04-03T12:24:03.538Z,42.30
2017-04-03T12:25:08.183Z,42.60
2017-04-03T12:26:10.459Z,42.90
2017-04-03T12:27:15.504Z,42.60
2017-04-03T12:28:19.699Z,44.00
2017-04-03T12:29:24.300Z,41.60
2017-04-03T12:30:28.824Z,41.00
2017-04-03T12:31:33.971Z,39.60
2017-04-03T12:32:38.508Z,37.30
2017-04-03T12:34:03.900Z,40.60
2017-04-03T12:35:02.663Z,40.30
2017-04-03T12:36:01.460Z,41.00
2017-04-03T12:37:00.952Z,40.50
2017-04-03T12:38:00.500Z,40.00
2017-04-03T12:38:59.293Z,41.40
2017-04-03T12:39:58.071Z,41.60
2017-04-03T12:40:56.851Z,38.30
2017-04-03T12:41:56.410Z,38.70
2017-04-03T12:42:55.179Z,38.80
2017-04-03T12:43:54.059Z,39.30
2017-04-03T12:44:52.833Z,38.20
2017-04-03T12:45:51.655Z,36.60
2017-04-03T12:46:50.443Z,38.20
2017-04-03T12:47:49.269Z,37.50
2017-04-03T12:48:48.380Z,36.20
2017-04-03T12:49:47.464Z,36.00
2017-04-03T12:50:46.580Z,36.10
2017-04-03T12:51:45.685Z,36.00
2017-04-03T12:52:45.664Z,34.60
2017-04-03T12:53:44.912Z,36.10
2017-04-03T12:54:43.966Z,36.60
2017-04-03T12:55:42.468Z,36.60
2017-04-03T12:56:41.516Z,38.30
2017-04-03T12:57:40.608Z,36.30
2017-04-03T12:58:39.664Z,35.10
2017-04-03T12:59:38.836Z,36.20
2017-04-03T13:00:38.704Z,35.00
2017-04-03T13:01:37.844Z,35.60
2017-04-03T13:02:37.004Z,36.50
2017-04-03T13:03:36.137Z,35.60
2017-04-03T13:04:35.210Z,35.00
2017-04-03T13:05:34.404Z,34.90
2017-04-03T13:06:33.460Z,34.50
2017-04-03T13:07:32.644Z,34.50
2017-04-03T13:08:31.852Z,33.80
2017-04-03T13:09:31.115Z,33.90
2017-04-03T13:10:30.245Z,33.20
2017-04-03T13:11:30.288Z,36.70
2017-04-03T13:12:29.340Z,35.90
2017-04-03T13:13:28.724Z,36.90
2017-04-03T13:14:27.911Z,36.00
2017-04-03T13:15:27.151Z,36.90
2017-04-03T13:16:26.982Z,34.80
2017-04-03T13:17:26.137Z,35.10
2017-04-03T13:18:26.029Z,32.80
2017-04-03T13:19:25.796Z,33.70
2017-04-03T13:20:24.849Z,32.90
2017-04-03T13:21:23.936Z,33.70
2017-04-03T13:22:23.028Z,32.60
2017-04-03T13:23:22.164Z,33.20
2017-04-03T13:24:21.474Z,35.70
2017-04-03T13:25:20.556Z,34.80
2017-04-03T13:26:19.791Z,36.80
2017-04-03T13:27:19.657Z,35.10
2017-04-03T13:28:19.094Z,31.10
2017-04-03T13:29:18.450Z,32.00
2017-04-03T13:30:17.660Z,35.10
2017-04-03T13:31:16.852Z,34.20
2017-04-03T13:32:15.903Z,33.60
2017-04-03T13:33:15.739Z,32.70
2017-04-03T13:34:14.860Z,33.60
2017-04-03T13:35:14.124Z,32.30
2017-04-03T13:36:13.243Z,31.60
2017-04-03T13:37:13.112Z,33.40
2017-04-03T13:38:12.216Z,34.80
2017-04-03T13:39:12.128Z,35.30
2017-04-03T13:40:11.228Z,33.20
2017-04-03T13:41:10.369Z,31.90